createdAt,value
2022-12-24T00:01:06.644Z,5.80
2022-12-24T00:03:35.078Z,5.90
2022-12-24T00:06:10.445Z,5.80
2022-12-24T00:08:37.654Z,5.80
2022-12-24T00:11:04.757Z,5.80
2022-12-24T00:13:32.059Z,5.90
2022-12-24T00:15:59.241Z,5.80
2022-12-24T00:18:26.782Z,5.80
2022-12-24T00:20:54.069Z,5.70
2022-12-24T00:23:21.612Z,5.70
2022-12-24T00:25:48.741Z,5.70
2022-12-24T00:28:17.141Z,5.80
2022-12-24T00:30:44.808Z,5.80
2022-12-24T00:33:12.055Z,5.80
2022-12-24T00:35:39.961Z,5.90
2022-12-24T00:38:08.567Z,5.90
2022-12-24T00:40:36.051Z,5.90
2022-12-24T00:43:04.073Z,5.90
2022-12-24T00:45:31.019Z,5.90
2022-12-24T00:47:58.283Z,5.80
2022-12-24T00:50:25.900Z,5.80
2022-12-24T00:52:53.118Z,5.80
2022-12-24T00:55:20.161Z,5.80
2022-12-24T00:57:47.426Z,5.80
2022-12-24T01:00:17.477Z,5.80
2022-12-24T01:02:44.994Z,5.80
2022-12-24T01:05:12.680Z,5.80
2022-12-24T01:07:44.598Z,5.80
2022-12-24T01:10:16.757Z,5.80
2022-12-24T01:12:45.372Z,5.80
2022-12-24T01:15:14.085Z,5.80
2022-12-24T01:17:41.712Z,5.80
2022-12-24T01:20:13.109Z,5.70
2022-12-24T01:22:40.428Z,5.60
2022-12-24T01:25:07.876Z,5.60
2022-12-24T01:27:35.112Z,5.60
2022-12-24T01:30:02.135Z,5.60
2022-12-24T01:32:29.404Z,5.60
2022-12-24T01:34:56.336Z,5.60
2022-12-24T01:37:24.041Z,5.60
2022-12-24T01:39:51.037Z,5.50
2022-12-24T01:42:41.831Z,5.50
2022-12-24T01:45:36.861Z,5.60
2022-12-24T01:48:05.365Z,5.60
2022-12-24T01:50:32.284Z,5.50
2022-12-24T01:52:59.861Z,5.50
2022-12-24T01:55:27.026Z,5.60
2022-12-24T01:57:58.575Z,5.60
2022-12-24T02:00:25.577Z,5.50
2022-12-24T02:02:54.263Z,5.50
2022-12-24T02:05:21.481Z,5.50
2022-12-24T02:07:49.406Z,5.50
2022-12-24T02:10:16.877Z,5.50
2022-12-24T02:12:45.854Z,5.60
2022-12-24T02:15:15.065Z,5.50
2022-12-24T02:18:19.380Z,5.50
2022-12-24T02:21:23.556Z,5.50
2022-12-24T02:23:53.514Z,5.40
2022-12-24T02:26:51.120Z,5.40
2022-12-24T02:29:24.045Z,5.40
2022-12-24T02:32:02.545Z,5.40
2022-12-24T02:34:38.857Z,5.40
2022-12-24T02:37:17.694Z,5.40
2022-12-24T02:40:01.205Z,5.40
2022-12-24T02:42:36.255Z,5.40
2022-12-24T02:45:08.155Z,5.30
2022-12-24T02:47:36.206Z,5.30
2022-12-24T02:50:07.008Z,5.30
2022-12-24T02:52:36.842Z,5.30
2022-12-24T02:55:45.373Z,5.30
2022-12-24T02:58:30.856Z,5.30
2022-12-24T03:01:17.395Z,5.30
2022-12-24T03:04:18.535Z,5.30
2022-12-24T03:06:45.805Z,5.30
2022-12-24T03:09:19.596Z,5.30
2022-12-24T03:11:55.313Z,5.30
2022-12-24T03:14:23.824Z,5.30
2022-12-24T03:16:51.371Z,5.30
2022-12-24T03:19:20.377Z,5.30
2022-12-24T03:21:49.828Z,5.30
2022-12-24T03:24:16.884Z,5.20
2022-12-24T03:26:45.924Z,5.30
2022-12-24T03:29:13.132Z,5.30
2022-12-24T03:31:46.032Z,5.30
2022-12-24T03:34:14.066Z,5.30
2022-12-24T03:36:41.686Z,5.20
2022-12-24T03:39:09.754Z,5.20
2022-12-24T03:41:38.018Z,5.20
2022-12-24T03:44:04.955Z,5.20
2022-12-24T03:46:32.253Z,5.20
2022-12-24T03:48:59.315Z,5.20
2022-12-24T03:51:26.713Z,5.20
2022-12-24T03:53:54.569Z,5.20
2022-12-24T03:56:22.645Z,5.20
2022-12-24T03:58:49.754Z,5.20
2022-12-24T04:01:17.927Z,5.20
2022-12-24T04:03:45.634Z,5.20
2022-12-24T04:06:15.971Z,5.20
2022-12-24T04:08:43.015Z,5.30
2022-12-24T04:11:16.409Z,5.30
2022-12-24T04:13:43.734Z,5.30
2022-12-24T04:16:13.575Z,5.20
2022-12-24T04:18:42.061Z,5.20
2022-12-24T04:21:10.227Z,5.20
2022-12-24T04:23:38.961Z,5.20
2022-12-24T04:26:08.941Z,5.20
2022-12-24T04:28:36.915Z,5.20
2022-12-24T04:31:10.499Z,5.20
2022-12-24T04:33:37.984Z,5.20
2022-12-24T04:36:06.829Z,5.20
2022-12-24T04:38:34.616Z,5.20
2022-12-24T04:41:24.401Z,5.20
2022-12-24T04:43:53.979Z,5.20
2022-12-24T04:46:24.082Z,5.20
2022-12-24T04:48:52.561Z,5.20
2022-12-24T04:51:20.836Z,5.10
2022-12-24T04:53:47.901Z,5.10
2022-12-24T04:56:21.618Z,5.10
2022-12-24T04:58:49.157Z,5.10
2022-12-24T05:01:23.024Z,5.20
2022-12-24T05:03:51.237Z,5.20
2022-12-24T05:06:22.286Z,5.20
2022-12-24T05:08:49.930Z,5.20
2022-12-24T05:11:17.359Z,5.20
2022-12-24T05:13:47.424Z,5.10
2022-12-24T05:16:17.440Z,5.20
2022-12-24T05:18:44.423Z,5.20
2022-12-24T05:21:15.073Z,5.20
2022-12-24T05:24:00.615Z,5.20
2022-12-24T05:26:53.241Z,5.20
2022-12-24T05:29:20.667Z,5.20
2022-12-24T05:31:48.290Z,5.10
2022-12-24T05:34:16.707Z,5.10
2022-12-24T05:36:45.181Z,5.10
2022-12-24T05:39:17.096Z,5.20
2022-12-24T05:41:45.313Z,5.20
2022-12-24T05:44:12.395Z,5.20
2022-12-24T05:46:39.869Z,5.30
2022-12-24T05:49:06.849Z,5.30
2022-12-24T05:51:34.261Z,5.30
2022-12-24T05:54:01.360Z,5.20
2022-12-24T05:56:28.619Z,5.20
2022-12-24T05:58:55.755Z,5.20
2022-12-24T06:01:23.389Z,5.20
2022-12-24T06:03:50.988Z,5.20
2022-12-24T06:06:25.520Z,5.10
2022-12-24T06:08:53.693Z,5.10
2022-12-24T06:11:26.081Z,5.10
2022-12-24T06:13:54.140Z,5.10
2022-12-24T06:16:22.519Z,5.10
2022-12-24T06:18:49.927Z,5.10
2022-12-24T06:21:17.911Z,5.10
2022-12-24T06:23:45.785Z,5.20
2022-12-24T06:26:16.400Z,5.20
2022-12-24T06:28:44.443Z,5.20
2022-12-24T06:31:20.729Z,5.20
2022-12-24T06:33:48.754Z,5.20
2022-12-24T06:36:24.277Z,5.20
2022-12-24T06:38:53.520Z,5.20
2022-12-24T06:41:20.818Z,5.20
2022-12-24T06:43:50.114Z,5.20
2022-12-24T06:46:18.673Z,5.20
2022-12-24T06:48:46.459Z,5.20
2022-12-24T06:51:15.124Z,5.20
2022-12-24T06:53:42.519Z,5.20
2022-12-24T06:56:13.010Z,5.20
2022-12-24T06:58:41.163Z,5.10
2022-12-24T07:01:11.287Z,5.10
2022-12-24T07:03:38.702Z,5.10
2022-12-24T07:06:06.326Z,5.20
2022-12-24T07:08:34.151Z,5.30
2022-12-24T07:11:01.790Z,5.20
2022-12-24T07:13:29.379Z,5.20
2022-12-24T07:16:03.995Z,5.20
2022-12-24T07:18:31.296Z,5.20
2022-12-24T07:20:58.606Z,5.20
2022-12-24T07:23:25.844Z,5.20
2022-12-24T07:25:53.095Z,5.20
2022-12-24T07:28:25.725Z,5.30
2022-12-24T07:30:58.981Z,5.30
2022-12-24T07:33:26.512Z,5.30
2022-12-24T07:36:01.197Z,5.20
2022-12-24T07:38:28.754Z,5.30
2022-12-24T07:40:57.078Z,5.30
2022-12-24T07:43:24.847Z,5.30
2022-12-24T07:45:55.365Z,5.20
2022-12-24T07:48:22.788Z,5.30
2022-12-24T07:50:50.987Z,5.30
2022-12-24T07:53:18.285Z,5.30
2022-12-24T07:55:45.598Z,5.30
2022-12-24T07:58:12.580Z,5.30
2022-12-24T08:00:39.895Z,5.30
2022-12-24T08:03:06.922Z,5.30
2022-12-24T08:05:35.795Z,5.30
2022-12-24T08:08:03.107Z,5.30
2022-12-24T08:10:30.380Z,5.30
2022-12-24T08:12:57.338Z,5.20
2022-12-24T08:15:24.583Z,5.20
2022-12-24T08:17:51.556Z,5.20
2022-12-24T08:20:19.018Z,5.20
2022-12-24T08:22:46.035Z,5.20
2022-12-24T08:25:13.383Z,5.20
2022-12-24T08:27:40.352Z,5.30
2022-12-24T08:30:08.284Z,5.30
2022-12-24T08:32:35.269Z,5.30
2022-12-24T08:35:02.503Z,5.30
2022-12-24T08:37:29.448Z,5.30
2022-12-24T08:39:56.629Z,5.30
2022-12-24T08:42:23.697Z,5.40
2022-12-24T08:44:50.907Z,5.40
2022-12-24T08:47:17.876Z,5.40
2022-12-24T08:49:45.260Z,5.40
2022-12-24T08:52:12.210Z,5.40
2022-12-24T08:54:39.589Z,5.40
2022-12-24T08:57:06.577Z,5.40
2022-12-24T08:59:33.775Z,5.40
2022-12-24T09:02:01.813Z,5.50
2022-12-24T09:04:29.184Z,5.50
2022-12-24T09:06:56.132Z,5.40
2022-12-24T09:09:23.415Z,5.40
2022-12-24T09:11:50.388Z,5.50
2022-12-24T09:14:17.555Z,5.50
2022-12-24T09:16:44.601Z,5.50
2022-12-24T09:19:11.937Z,5.40
2022-12-24T09:21:38.839Z,5.50
2022-12-24T09:24:06.514Z,5.50
2022-12-24T09:26:33.577Z,5.60
2022-12-24T09:29:01.416Z,5.60
2022-12-24T09:31:28.935Z,5.60
2022-12-24T09:33:56.222Z,5.70
2022-12-24T09:36:23.199Z,5.70
2022-12-24T09:38:51.289Z,5.70
2022-12-24T09:41:59.258Z,5.80
2022-12-24T09:44:51.605Z,5.70
2022-12-24T09:47:41.298Z,5.80
2022-12-24T09:50:42.071Z,5.90
2022-12-24T09:53:37.019Z,5.90
2022-12-24T09:56:18.778Z,5.90
2022-12-24T09:58:49.582Z,5.90
2022-12-24T10:01:19.091Z,5.90
2022-12-24T10:03:46.867Z,5.90
2022-12-24T10:06:17.917Z,5.90
2022-12-24T10:08:51.356Z,6.00
2022-12-24T10:11:51.365Z,6.00
2022-12-24T10:14:33.372Z,6.10
2022-12-24T10:17:24.783Z,6.20
2022-12-24T10:20:39.107Z,6.20
2022-12-24T10:23:28.651Z,6.10
2022-12-24T10:26:27.353Z,6.10
2022-12-24T10:29:00.752Z,6.10
2022-12-24T10:31:32.207Z,6.10
2022-12-24T10:34:05.653Z,6.10
2022-12-24T10:36:33.240Z,6.00
2022-12-24T10:39:00.722Z,6.00
2022-12-24T10:41:29.465Z,5.90
2022-12-24T10:43:57.590Z,5.90
2022-12-24T10:46:33.124Z,6.00
2022-12-24T10:49:06.340Z,6.00
2022-12-24T10:51:40.575Z,6.00
2022-12-24T10:54:26.191Z,5.90
2022-12-24T10:56:59.427Z,5.90
2022-12-24T10:59:50.508Z,6.00
2022-12-24T11:02:32.632Z,6.00
2022-12-24T11:05:02.029Z,6.00
2022-12-24T11:07:31.151Z,5.90
2022-12-24T11:10:08.230Z,5.90
2022-12-24T11:13:05.864Z,5.90
2022-12-24T11:15:35.386Z,5.80
2022-12-24T11:18:13.700Z,5.80
2022-12-24T11:20:41.800Z,5.80
2022-12-24T11:23:18.474Z,5.80
2022-12-24T11:25:51.247Z,5.70
2022-12-24T11:28:30.562Z,5.80
2022-12-24T11:31:18.037Z,5.80
2022-12-24T11:33:51.075Z,5.90
2022-12-24T11:36:23.173Z,5.90
2022-12-24T11:38:55.446Z,5.80
2022-12-24T11:41:23.844Z,5.80
2022-12-24T11:43:59.289Z,5.70
2022-12-24T11:46:36.731Z,5.70
2022-12-24T11:49:30.752Z,5.80
2022-12-24T11:52:09.955Z,5.70
2022-12-24T11:55:10.282Z,5.70
2022-12-24T11:57:54.807Z,5.70
2022-12-24T12:00:21.803Z,5.70
2022-12-24T12:02:51.580Z,5.70
2022-12-24T12:05:21.358Z,5.60
2022-12-24T12:07:53.241Z,5.70
2022-12-24T12:10:30.411Z,5.60
2022-12-24T12:13:15.328Z,5.60
2022-12-24T12:16:00.251Z,5.60
2022-12-24T12:18:38.269Z,5.50
2022-12-24T12:21:10.101Z,5.50
2022-12-24T12:23:44.584Z,5.50
2022-12-24T12:26:26.351Z,5.60
2022-12-24T12:29:02.294Z,5.60
2022-12-24T12:31:35.524Z,5.50
2022-12-24T12:34:24.457Z,5.50
2022-12-24T12:36:53.684Z,5.50
2022-12-24T12:39:20.923Z,5.60
2022-12-24T12:41:59.678Z,5.60
2022-12-24T12:44:47.135Z,5.50
2022-12-24T12:47:35.999Z,5.50
2022-12-24T12:50:25.721Z,5.50
2022-12-24T12:53:27.484Z,5.60
2022-12-24T12:56:06.967Z,5.60
2022-12-24T12:59:02.812Z,5.60
2022-12-24T13:01:45.702Z,5.60
2022-12-24T13:04:48.395Z,5.60
2022-12-24T13:07:18.324Z,5.60
2022-12-24T13:09:59.976Z,5.60
2022-12-24T13:12:33.935Z,5.80
2022-12-24T13:15:26.822Z,5.70
2022-12-24T13:18:10.712Z,5.70
2022-12-24T13:20:42.858Z,5.70
2022-12-24T13:23:15.845Z,5.70
2022-12-24T13:25:48.339Z,5.70
2022-12-24T13:28:24.449Z,5.60
2022-12-24T13:31:25.761Z,5.60
2022-12-24T13:33:57.831Z,5.60
2022-12-24T13:36:25.392Z,5.60
2022-12-24T13:38:53.579Z,5.60
2022-12-24T13:41:40.688Z,5.60
2022-12-24T13:44:14.834Z,5.60
2022-12-24T13:47:05.282Z,5.50
2022-12-24T13:49:42.774Z,5.60
2022-12-24T13:52:12.551Z,5.60
2022-12-24T13:54:43.861Z,5.50
2022-12-24T13:57:36.783Z,5.60
2022-12-24T14:00:13.086Z,5.50
2022-12-24T14:02:49.103Z,5.50
2022-12-24T14:05:33.330Z,5.50
2022-12-24T14:08:04.304Z,5.50
2022-12-24T14:10:43.863Z,5.50
2022-12-24T14:13:49.694Z,5.50
2022-12-24T14:16:20.686Z,5.50
2022-12-24T14:19:03.234Z,5.50
2022-12-24T14:21:37.475Z,5.60
2022-12-24T14:24:13.447Z,5.60
2022-12-24T14:26:57.167Z,5.50
2022-12-24T14:29:35.942Z,5.50
2022-12-24T14:32:14.435Z,5.50
2022-12-24T14:34:41.727Z,5.50
2022-12-24T14:37:12.648Z,5.50
2022-12-24T14:39:44.168Z,5.50
2022-12-24T14:42:38.476Z,5.50
2022-12-24T14:45:34.115Z,5.40
2022-12-24T14:48:19.467Z,5.40
2022-12-24T14:51:01.424Z,5.40
2022-12-24T14:53:49.432Z,5.40
2022-12-24T14:56:20.992Z,5.40
2022-12-24T14:58:48.365Z,5.30
2022-12-24T15:01:20.357Z,5.20
2022-12-24T15:04:09.058Z,5.00
2022-12-24T15:06:52.693Z,4.90
2022-12-24T15:09:33.879Z,4.90
2022-12-24T15:12:04.531Z,4.80
2022-12-24T15:14:41.619Z,4.90
2022-12-24T15:17:11.543Z,4.90
2022-12-24T15:19:42.914Z,4.80
2022-12-24T15:22:15.403Z,4.80
2022-12-24T15:24:47.855Z,4.70
2022-12-24T15:27:21.335Z,4.70
2022-12-24T15:29:51.759Z,4.60
2022-12-24T15:32:21.091Z,4.60
2022-12-24T15:34:50.755Z,4.70
2022-12-24T15:37:19.811Z,4.70
2022-12-24T15:40:09.811Z,4.60
2022-12-24T15:42:41.504Z,4.60
2022-12-24T15:45:31.204Z,4.60
2022-12-24T15:48:08.360Z,4.60
2022-12-24T15:50:38.176Z,4.60
2022-12-24T15:53:20.197Z,4.60
2022-12-24T15:56:03.283Z,4.60
2022-12-24T15:58:36.046Z,4.60
2022-12-24T16:01:09.806Z,4.60
2022-12-24T16:03:42.284Z,4.60
2022-12-24T16:06:13.816Z,4.50
2022-12-24T16:08:42.566Z,4.50
2022-12-24T16:11:19.876Z,4.50
2022-12-24T16:13:55.978Z,4.60
2022-12-24T16:16:38.866Z,4.60
2022-12-24T16:19:08.430Z,4.60
2022-12-24T16:21:38.955Z,4.50
2022-12-24T16:24:06.386Z,4.50
2022-12-24T16:26:34.906Z,4.40
2022-12-24T16:29:02.467Z,4.40
2022-12-24T16:31:46.711Z,4.40
2022-12-24T16:34:15.589Z,4.40
2022-12-24T16:36:44.927Z,4.40
2022-12-24T16:39:26.716Z,4.40
2022-12-24T16:42:14.272Z,4.50
2022-12-24T16:44:42.173Z,4.50
2022-12-24T16:47:28.673Z,4.40
2022-12-24T16:49:57.508Z,4.40
2022-12-24T16:52:28.931Z,4.40
2022-12-24T16:54:57.084Z,4.30
2022-12-24T16:57:24.993Z,4.40
2022-12-24T16:59:52.629Z,4.30
2022-12-24T17:02:23.613Z,4.30
2022-12-24T17:04:51.011Z,4.40
2022-12-24T17:07:19.882Z,4.30
2022-12-24T17:09:46.844Z,4.30
2022-12-24T17:12:14.395Z,4.30
2022-12-24T17:14:42.504Z,4.30
2022-12-24T17:17:26.644Z,4.30
2022-12-24T17:19:54.446Z,4.30
2022-12-24T17:22:22.536Z,4.40
2022-12-24T17:24:49.848Z,4.30
2022-12-24T17:27:17.073Z,4.30
2022-12-24T17:29:44.054Z,4.30
2022-12-24T17:32:11.296Z,4.30
2022-12-24T17:34:39.163Z,4.20
2022-12-24T17:37:06.477Z,4.30
2022-12-24T17:39:33.568Z,4.30
2022-12-24T17:42:00.811Z,4.30
2022-12-24T17:44:27.761Z,4.30
2022-12-24T17:46:55.064Z,4.20
2022-12-24T17:49:22.259Z,4.20
2022-12-24T17:51:49.494Z,4.20
2022-12-24T17:54:16.576Z,4.20
2022-12-24T17:56:43.936Z,4.20
2022-12-24T17:59:11.000Z,4.20
2022-12-24T18:01:38.311Z,4.20
2022-12-24T18:04:05.693Z,4.20
2022-12-24T18:06:33.174Z,4.20
2022-12-24T18:09:00.365Z,4.20
2022-12-24T18:11:33.243Z,4.10
2022-12-24T18:14:02.298Z,4.10
2022-12-24T18:16:38.612Z,4.20
2022-12-24T18:19:08.403Z,4.10
2022-12-24T18:21:35.759Z,4.10
2022-12-24T18:24:03.123Z,4.20
2022-12-24T18:26:33.190Z,4.20
2022-12-24T18:29:04.366Z,4.20
2022-12-24T18:31:33.801Z,4.10
2022-12-24T18:34:02.747Z,4.10
2022-12-24T18:36:30.987Z,4.10
2022-12-24T18:38:58.046Z,4.20
2022-12-24T18:41:27.977Z,4.20
2022-12-24T18:43:56.783Z,4.20
2022-12-24T18:46:26.670Z,4.10
2022-12-24T18:48:55.453Z,4.10
2022-12-24T18:51:23.838Z,4.10
2022-12-24T18:53:51.527Z,4.10
2022-12-24T18:56:21.875Z,4.10
2022-12-24T18:58:49.518Z,4.10
2022-12-24T19:01:20.824Z,4.10
2022-12-24T19:03:49.337Z,4.10
2022-12-24T19:06:17.386Z,4.10
2022-12-24T19:09:01.495Z,4.10
2022-12-24T19:11:31.678Z,4.10
2022-12-24T19:13:59.550Z,4.10
2022-12-24T19:16:28.369Z,4.10
2022-12-24T19:18:55.814Z,4.10
2022-12-24T19:21:23.084Z,4.10
2022-12-24T19:23:50.434Z,4.10
2022-12-24T19:26:18.879Z,4.00
2022-12-24T19:28:46.491Z,4.10
2022-12-24T19:31:17.268Z,4.10
2022-12-24T19:33:55.259Z,4.10
2022-12-24T19:36:25.754Z,4.10
2022-12-24T19:38:52.745Z,4.00
2022-12-24T19:41:23.848Z,4.00
2022-12-24T19:43:52.844Z,3.90
2022-12-24T19:46:22.084Z,3.90
2022-12-24T19:48:54.654Z,3.90
2022-12-24T19:51:22.708Z,3.90
2022-12-24T19:53:50.287Z,3.90
2022-12-24T19:56:19.135Z,3.90
2022-12-24T19:58:47.721Z,3.90
2022-12-24T20:01:18.512Z,3.90
2022-12-24T20:03:47.068Z,3.90
2022-12-24T20:06:16.136Z,3.90
2022-12-24T20:08:43.954Z,3.90
2022-12-24T20:11:13.620Z,3.90
2022-12-24T20:13:41.342Z,3.90
2022-12-24T20:16:14.264Z,3.90
2022-12-24T20:18:41.596Z,3.90
2022-12-24T20:21:11.648Z,3.90
2022-12-24T20:23:40.132Z,3.90
2022-12-24T20:26:10.216Z,3.80
2022-12-24T20:28:37.384Z,3.90
2022-12-24T20:31:28.565Z,3.90
2022-12-24T20:33:59.911Z,3.90
2022-12-24T20:36:29.045Z,3.90
2022-12-24T20:38:56.545Z,3.90
2022-12-24T20:41:26.368Z,3.90
2022-12-24T20:43:53.545Z,3.90
2022-12-24T20:46:23.077Z,3.90
2022-12-24T20:48:51.071Z,3.90
2022-12-24T20:51:25.154Z,3.90
2022-12-24T20:53:58.062Z,3.90
2022-12-24T20:56:25.929Z,3.90
2022-12-24T20:58:52.884Z,3.90
2022-12-24T21:01:24.463Z,3.90
2022-12-24T21:03:55.985Z,3.90
2022-12-24T21:06:24.551Z,3.90
2022-12-24T21:08:53.156Z,3.90
2022-12-24T21:11:39.852Z,3.90
2022-12-24T21:14:06.937Z,3.80
2022-12-24T21:16:35.990Z,3.80
2022-12-24T21:19:04.943Z,3.90
2022-12-24T21:21:32.622Z,3.90
2022-12-24T21:23:59.921Z,3.90
2022-12-24T21:26:27.220Z,3.90
2022-12-24T21:28:54.696Z,4.00
2022-12-24T21:31:22.178Z,4.00
2022-12-24T21:33:49.305Z,3.90
2022-12-24T21:36:17.062Z,3.90
2022-12-24T21:38:44.180Z,3.90
2022-12-24T21:41:17.122Z,3.90
2022-12-24T21:43:45.252Z,3.90
2022-12-24T21:46:19.389Z,3.90
2022-12-24T21:49:05.102Z,3.90
2022-12-24T21:51:33.025Z,3.90
2022-12-24T21:54:18.561Z,3.90
2022-12-24T21:57:04.693Z,3.90
2022-12-24T21:59:31.655Z,3.90
2022-12-24T22:01:59.453Z,3.90
2022-12-24T22:04:27.540Z,3.90
2022-12-24T22:07:13.601Z,3.90
2022-12-24T22:09:59.249Z,3.90
2022-12-24T22:12:30.342Z,3.90
2022-12-24T22:14:57.332Z,3.90
2022-12-24T22:17:25.667Z,3.90
2022-12-24T22:19:54.410Z,3.90
2022-12-24T22:22:22.198Z,3.90
2022-12-24T22:24:49.355Z,3.90
2022-12-24T22:27:16.689Z,3.90
2022-12-24T22:29:43.637Z,3.90
2022-12-24T22:32:10.989Z,3.90
2022-12-24T22:34:37.994Z,3.80
2022-12-24T22:37:05.226Z,3.80
2022-12-24T22:39:32.301Z,3.80
2022-12-24T22:41:59.647Z,3.80
2022-12-24T22:44:26.689Z,3.80
2022-12-24T22:46:53.932Z,3.90
2022-12-24T22:49:21.002Z,3.90
2022-12-24T22:51:48.268Z,3.90
2022-12-24T22:54:16.001Z,3.90
2022-12-24T22:56:43.518Z,3.90
2022-12-24T22:59:13.898Z,3.80
2022-12-24T23:01:43.733Z,3.80
2022-12-24T23:04:12.083Z,3.80
2022-12-24T23:06:40.008Z,3.90
2022-12-24T23:09:09.026Z,3.80
2022-12-24T23:11:36.512Z,3.80
2022-12-24T23:14:21.943Z,3.80
2022-12-24T23:16:49.195Z,3.80
2022-12-24T23:19:16.224Z,3.80
2022-12-24T23:21:43.503Z,3.80
2022-12-24T23:24:11.247Z,3.80
2022-12-24T23:26:38.771Z,3.90
2022-12-24T23:29:06.719Z,3.90
2022-12-24T23:31:35.011Z,3.90
2022-12-24T23:34:02.205Z,3.90
2022-12-24T23:36:29.641Z,3.90
2022-12-24T23:38:57.615Z,3.90
2022-12-24T23:41:25.274Z,4.00
2022-12-24T23:43:52.357Z,4.00
2022-12-24T23:46:20.581Z,4.00
2022-12-24T23:48:48.171Z,4.00
2022-12-24T23:51:19.095Z,4.00
2022-12-24T23:53:46.494Z,4.00
2022-12-24T23:56:13.952Z,4.00
2022-12-24T23:58:41.979Z,4.00
